createdAt,value
2022-09-29T00:01:16.656Z,2.58
2022-09-29T00:03:43.265Z,2.60
2022-09-29T00:06:15.186Z,2.15
2022-09-29T00:08:42.442Z,1.75
2022-09-29T00:17:05.211Z,1.70
2022-09-29T00:19:35.113Z,1.60
2022-09-29T00:22:03.549Z,1.60
2022-09-29T00:24:50.155Z,1.50
2022-09-29T00:27:27.801Z,1.67
2022-09-29T00:29:54.772Z,1.40
2022-09-29T00:35:02.259Z,2.55
2022-09-29T00:37:29.042Z,1.98
2022-09-29T00:39:55.647Z,1.80
2022-09-29T00:42:23.255Z,1.75
2022-09-29T00:45:12.523Z,1.77
2022-09-29T00:47:43.568Z,1.70
2022-09-29T00:50:21.156Z,1.60
2022-09-29T00:52:54.177Z,1.70
2022-09-29T00:55:37.719Z,1.60
2022-09-29T00:58:10.562Z,1.80
2022-09-29T01:00:37.770Z,1.50
2022-09-29T01:03:13.003Z,1.85
2022-09-29T01:05:45.794Z,1.58
2022-09-29T01:08:20.605Z,1.73
2022-09-29T01:10:48.584Z,2.00
2022-09-29T01:13:15.529Z,1.92
2022-09-29T01:15:42.376Z,2.05
2022-09-29T01:18:09.163Z,1.88
2022-09-29T01:20:46.259Z,1.75
2022-09-29T01:23:58.075Z,1.35
2022-09-29T01:26:57.598Z,1.65
2022-09-29T01:29:27.109Z,1.67
2022-09-29T01:32:18.111Z,1.42
2022-09-29T01:34:58.727Z,1.60
2022-09-29T01:37:50.167Z,1.90
2022-09-29T01:40:23.811Z,1.60
2022-09-29T01:43:16.675Z,1.67
2022-09-29T01:48:37.849Z,2.00
2022-09-29T01:51:13.082Z,1.58
2022-09-29T01:54:02.995Z,1.85
2022-09-29T01:56:38.195Z,1.75
2022-09-29T01:59:28.137Z,1.73
2022-09-29T02:02:01.045Z,1.88
2022-09-29T02:04:33.615Z,1.58
2022-09-29T02:09:39.129Z,1.88
2022-09-29T02:12:07.253Z,1.95
2022-09-29T02:14:42.669Z,2.08
2022-09-29T02:17:19.679Z,2.00
2022-09-29T02:19:48.768Z,2.20
2022-09-29T02:22:16.370Z,2.17
2022-09-29T02:24:43.824Z,2.22
2022-09-29T02:27:11.209Z,2.40
2022-09-29T02:29:39.411Z,2.40
2022-09-29T02:32:09.707Z,2.40
2022-09-29T02:34:42.117Z,2.22
2022-09-29T02:39:41.367Z,2.17
2022-09-29T02:42:37.333Z,2.03
2022-09-29T02:45:19.197Z,1.98
2022-09-29T02:48:19.411Z,2.00
2022-09-29T02:51:30.484Z,2.22
2022-09-29T02:54:11.916Z,2.10
2022-09-29T03:03:13.618Z,2.45
2022-09-29T03:05:40.354Z,2.10
2022-09-29T03:08:06.988Z,2.10
2022-09-29T03:10:33.813Z,2.10
2022-09-29T03:13:00.675Z,2.20
2022-09-29T03:15:27.380Z,1.98
2022-09-29T03:17:57.385Z,2.20
2022-09-29T03:20:24.677Z,2.88
2022-09-29T03:22:52.117Z,2.30
2022-09-29T03:25:19.158Z,2.50
2022-09-29T03:27:46.276Z,2.60
2022-09-29T03:30:13.582Z,2.50
2022-09-29T03:32:40.214Z,2.42
2022-09-29T03:35:07.730Z,2.25
2022-09-29T03:37:34.543Z,2.50
2022-09-29T03:40:01.690Z,2.58
2022-09-29T03:42:28.723Z,2.35
2022-09-29T03:44:55.535Z,2.60
2022-09-29T03:47:22.379Z,2.70
2022-09-29T03:49:49.344Z,3.28
2022-09-29T03:52:16.328Z,2.75
2022-09-29T03:54:43.165Z,2.80
2022-09-29T03:57:09.747Z,2.90
2022-09-29T03:59:36.463Z,2.90
2022-09-29T04:02:04.219Z,3.30
2022-09-29T04:04:31.375Z,2.80
2022-09-29T04:06:57.971Z,2.67
2022-09-29T04:09:24.616Z,2.50
2022-09-29T04:11:51.319Z,2.25
2022-09-29T04:14:18.045Z,2.50
2022-09-29T04:16:44.727Z,2.47
2022-09-29T04:19:11.637Z,3.10
2022-09-29T04:21:38.318Z,2.88
2022-09-29T04:24:04.999Z,2.90
2022-09-29T04:26:31.606Z,2.83
2022-09-29T04:28:58.487Z,2.85
2022-09-29T04:31:25.187Z,2.80
2022-09-29T04:33:52.321Z,2.90
2022-09-29T04:36:19.008Z,2.40
2022-09-29T04:38:45.718Z,2.70
2022-09-29T04:41:12.353Z,2.58
2022-09-29T04:43:39.025Z,2.60
2022-09-29T04:46:07.543Z,2.58
2022-09-29T04:48:36.334Z,2.50
2022-09-29T04:51:04.196Z,2.83
2022-09-29T04:53:31.065Z,4.10
2022-09-29T04:55:57.765Z,3.45
2022-09-29T04:58:24.442Z,3.13
2022-09-29T05:00:51.126Z,3.05
2022-09-29T05:03:17.791Z,3.20
2022-09-29T05:05:44.701Z,3.00
2022-09-29T05:08:11.475Z,3.13
2022-09-29T05:10:38.261Z,3.45
2022-09-29T05:13:04.878Z,3.33
2022-09-29T05:15:31.560Z,3.08
2022-09-29T05:18:02.350Z,2.95
2022-09-29T05:20:36.444Z,3.00
2022-09-29T05:23:09.982Z,3.45
2022-09-29T05:25:37.750Z,3.20
2022-09-29T05:28:04.479Z,3.85
2022-09-29T05:30:31.109Z,4.07
2022-09-29T05:32:59.136Z,3.55
2022-09-29T05:35:26.393Z,4.10
2022-09-29T05:37:53.138Z,3.80
2022-09-29T05:40:19.900Z,4.25
2022-09-29T05:42:46.848Z,4.28
2022-09-29T05:45:13.670Z,4.15
2022-09-29T05:47:44.687Z,3.92
2022-09-29T05:50:12.414Z,4.50
2022-09-29T05:52:40.267Z,4.07
2022-09-29T05:55:10.835Z,3.83
2022-09-29T05:57:37.832Z,4.22
2022-09-29T06:00:06.200Z,3.95
2022-09-29T06:02:34.209Z,3.90
2022-09-29T06:05:01.139Z,4.10
2022-09-29T06:07:27.801Z,4.00
2022-09-29T06:09:54.888Z,4.25
2022-09-29T06:12:22.279Z,4.10
2022-09-29T06:14:49.086Z,4.07
2022-09-29T06:17:16.068Z,4.03
2022-09-29T06:19:44.745Z,3.83
2022-09-29T06:22:11.710Z,3.90
2022-09-29T06:24:38.404Z,3.63
2022-09-29T06:27:04.999Z,4.10
2022-09-29T06:29:31.803Z,5.18
2022-09-29T06:31:58.669Z,3.55
2022-09-29T06:34:25.550Z,3.50
2022-09-29T06:37:11.838Z,3.70
2022-09-29T06:39:38.462Z,3.50
2022-09-29T06:42:05.252Z,3.45
2022-09-29T06:44:31.890Z,3.40
2022-09-29T06:46:58.812Z,3.50
2022-09-29T06:49:25.566Z,3.80
2022-09-29T06:51:52.611Z,3.60
2022-09-29T06:54:22.014Z,4.18
2022-09-29T06:56:54.877Z,4.03
2022-09-29T06:59:22.002Z,4.10
2022-09-29T07:01:50.869Z,4.07
2022-09-29T07:04:19.963Z,4.13
2022-09-29T07:06:46.798Z,4.60
2022-09-29T07:09:16.354Z,4.55
2022-09-29T07:11:48.013Z,4.25
2022-09-29T07:14:16.215Z,4.30
2022-09-29T07:16:43.014Z,4.28
2022-09-29T07:19:09.939Z,4.32
2022-09-29T07:21:36.748Z,4.47
2022-09-29T07:24:03.568Z,5.07
2022-09-29T07:26:30.271Z,5.47
2022-09-29T07:28:57.059Z,4.85
2022-09-29T07:31:24.103Z,6.32
2022-09-29T07:33:53.035Z,6.53
2022-09-29T07:36:20.829Z,6.93
2022-09-29T07:38:49.912Z,7.25
2022-09-29T07:41:18.680Z,6.78
2022-09-29T07:43:45.631Z,7.60
2022-09-29T07:46:12.669Z,8.63
2022-09-29T07:48:39.913Z,8.98
2022-09-29T07:51:14.631Z,8.95
2022-09-29T07:53:41.832Z,9.43
2022-09-29T07:56:20.553Z,9.38
2022-09-29T07:58:49.885Z,9.82
2022-09-29T08:01:17.904Z,10.60
2022-09-29T08:03:50.994Z,10.38
2022-09-29T08:06:18.538Z,10.73
2022-09-29T08:08:59.093Z,11.32
2022-09-29T08:11:32.109Z,11.23
2022-09-29T08:14:00.746Z,12.05
2022-09-29T08:16:27.834Z,13.38
2022-09-29T08:18:54.792Z,13.10
2022-09-29T08:21:21.483Z,12.95
2022-09-29T08:23:48.107Z,13.45
2022-09-29T08:26:17.625Z,14.02
2022-09-29T08:28:45.723Z,14.68
2022-09-29T08:31:21.447Z,14.70
2022-09-29T08:33:52.375Z,14.93
2022-09-29T08:36:20.423Z,14.40
2022-09-29T08:38:49.539Z,14.88
2022-09-29T08:41:26.233Z,14.77
2022-09-29T08:43:57.534Z,15.75
2022-09-29T08:46:36.057Z,15.85
2022-09-29T08:49:26.011Z,15.20
2022-09-29T08:52:14.917Z,15.63
2022-09-29T08:54:48.391Z,14.63
2022-09-29T08:57:18.873Z,15.23
2022-09-29T08:59:56.005Z,18.27
2022-09-29T09:02:59.985Z,17.33
2022-09-29T09:05:46.815Z,15.77
2022-09-29T09:08:25.360Z,17.13
2022-09-29T09:11:40.152Z,18.02
2022-09-29T09:14:26.002Z,17.50
2022-09-29T09:17:31.855Z,20.90
2022-09-29T09:20:34.620Z,20.25
2022-09-29T09:23:20.301Z,20.38
2022-09-29T09:25:59.061Z,20.17
2022-09-29T09:28:29.415Z,19.67
2022-09-29T09:30:58.964Z,20.05
2022-09-29T09:34:03.159Z,19.42
2022-09-29T09:36:41.573Z,20.23
2022-09-29T09:39:52.143Z,18.48
2022-09-29T09:42:24.463Z,20.38
2022-09-29T09:47:34.734Z,19.27
2022-09-29T09:50:22.730Z,20.48
2022-09-29T09:52:53.577Z,20.02
2022-09-29T09:55:24.764Z,18.25
2022-09-29T09:58:00.346Z,20.48
2022-09-29T10:00:52.684Z,20.17
2022-09-29T10:03:19.693Z,21.52
2022-09-29T10:05:50.656Z,22.13
2022-09-29T10:08:39.568Z,22.02
2022-09-29T10:11:22.732Z,19.73
2022-09-29T10:13:59.080Z,19.08
2022-09-29T10:16:41.528Z,20.02
2022-09-29T10:19:10.738Z,18.58
2022-09-29T10:21:40.146Z,20.20
2022-09-29T10:24:30.936Z,20.45
2022-09-29T10:27:01.304Z,20.05
2022-09-29T10:29:43.011Z,16.40
2022-09-29T10:32:14.733Z,15.75
2022-09-29T10:34:54.453Z,16.10
2022-09-29T10:37:35.384Z,15.27
2022-09-29T10:40:21.500Z,15.88
2022-09-29T10:42:51.059Z,12.82
2022-09-29T10:45:18.006Z,13.55
2022-09-29T10:48:04.168Z,13.05
2022-09-29T10:50:49.819Z,11.43
2022-09-29T10:53:20.063Z,12.23
2022-09-29T10:55:53.824Z,11.18
2022-09-29T10:58:44.621Z,9.40
2022-09-29T11:01:16.787Z,7.38
2022-09-29T11:03:51.409Z,7.75
2022-09-29T11:06:27.490Z,9.88
2022-09-29T11:09:05.943Z,8.77
2022-09-29T11:11:39.338Z,7.95
2022-09-29T11:14:23.529Z,7.47
2022-09-29T11:16:56.586Z,8.18
2022-09-29T11:19:23.906Z,7.82
2022-09-29T11:22:31.933Z,7.40
2022-09-29T11:25:20.580Z,7.05
2022-09-29T11:28:02.604Z,7.50
2022-09-29T11:30:54.213Z,7.82
2022-09-29T11:33:27.857Z,8.23
2022-09-29T11:36:07.320Z,7.93
2022-09-29T11:38:36.807Z,6.60
2022-09-29T11:41:41.573Z,7.43
2022-09-29T11:44:20.076Z,5.68
2022-09-29T11:46:50.323Z,5.43
2022-09-29T11:50:01.339Z,5.57
2022-09-29T11:52:39.963Z,5.07
2022-09-29T11:55:10.724Z,4.82
2022-09-29T11:58:04.586Z,5.25
2022-09-29T12:00:45.644Z,5.22
2022-09-29T12:03:33.364Z,5.20
2022-09-29T12:06:33.370Z,5.93
2022-09-29T12:09:10.819Z,5.40
2022-09-29T12:12:18.973Z,4.90
2022-09-29T12:15:07.932Z,3.45
2022-09-29T12:17:41.715Z,4.20
2022-09-29T12:20:22.500Z,4.55
2022-09-29T12:22:51.032Z,4.05
2022-09-29T12:25:22.273Z,3.45
2022-09-29T12:27:51.255Z,3.10
2022-09-29T12:30:38.880Z,3.28
2022-09-29T12:33:20.362Z,3.33
2022-09-29T12:36:31.095Z,3.08
2022-09-29T12:39:10.440Z,3.72
2022-09-29T12:41:42.473Z,3.10
2022-09-29T12:44:21.869Z,3.30
2022-09-29T12:46:54.855Z,3.53
2022-09-29T12:49:40.198Z,3.10
2022-09-29T12:52:18.832Z,3.50
2022-09-29T12:54:53.106Z,3.50
2022-09-29T12:57:31.208Z,3.08
2022-09-29T13:00:09.345Z,2.90
2022-09-29T13:02:57.559Z,3.03
2022-09-29T13:05:28.107Z,2.70
2022-09-29T13:08:26.828Z,3.22
2022-09-29T13:10:59.951Z,2.75
2022-09-29T13:13:32.457Z,3.00
2022-09-29T13:16:05.229Z,3.63
2022-09-29T13:18:48.983Z,3.78
2022-09-29T13:21:38.320Z,3.50
2022-09-29T13:24:29.860Z,3.50
2022-09-29T13:27:47.145Z,3.40
2022-09-29T13:30:23.150Z,3.28
2022-09-29T13:33:00.948Z,3.10
2022-09-29T13:35:28.371Z,3.08
2022-09-29T13:38:06.981Z,3.20
2022-09-29T13:40:34.105Z,2.88
2022-09-29T13:43:05.192Z,3.15
2022-09-29T13:45:34.522Z,2.45
2022-09-29T13:48:23.642Z,2.42
2022-09-29T13:50:59.530Z,2.33
2022-09-29T13:53:35.533Z,2.28
2022-09-29T13:56:02.124Z,3.05
2022-09-29T13:58:31.571Z,3.30
2022-09-29T14:01:01.188Z,3.55
2022-09-29T14:03:44.444Z,3.28
2022-09-29T14:06:41.825Z,3.55
2022-09-29T14:09:16.179Z,3.08
2022-09-29T14:11:51.754Z,3.10
2022-09-29T14:14:40.981Z,2.60
2022-09-29T14:17:25.464Z,2.88
2022-09-29T14:20:18.357Z,2.75
2022-09-29T14:22:47.679Z,2.30
2022-09-29T14:25:15.581Z,2.33
2022-09-29T14:28:01.347Z,2.60
2022-09-29T14:30:45.972Z,2.42
2022-09-29T14:33:36.280Z,2.38
2022-09-29T14:36:19.050Z,2.47
2022-09-29T14:41:51.931Z,2.70
2022-09-29T14:44:49.007Z,2.40
2022-09-29T14:47:47.592Z,2.90
2022-09-29T14:51:02.471Z,2.85
2022-09-29T14:54:18.311Z,2.67
2022-09-29T14:57:07.783Z,2.38
2022-09-29T15:00:01.621Z,3.10
2022-09-29T15:02:30.321Z,2.70
2022-09-29T15:04:57.546Z,3.20
2022-09-29T15:07:27.447Z,2.60
2022-09-29T15:09:56.963Z,2.45
2022-09-29T15:12:26.630Z,2.35
2022-09-29T15:14:57.056Z,2.60
2022-09-29T15:17:51.495Z,2.80
2022-09-29T15:20:34.342Z,2.80
2022-09-29T15:23:27.080Z,2.50
2022-09-29T15:28:36.462Z,2.90
2022-09-29T15:31:07.279Z,2.47
2022-09-29T15:33:40.529Z,2.60
2022-09-29T15:36:23.254Z,2.53
2022-09-29T15:38:55.292Z,2.40
2022-09-29T15:41:29.112Z,2.30
2022-09-29T15:44:00.229Z,2.10
2022-09-29T15:46:34.237Z,2.20
2022-09-29T15:49:21.849Z,2.10
2022-09-29T15:52:02.599Z,1.92
2022-09-29T15:54:34.347Z,2.00
2022-09-29T15:57:20.655Z,1.65
2022-09-29T15:59:54.132Z,1.77
2022-09-29T16:02:23.857Z,1.90
2022-09-29T16:04:55.061Z,1.70
2022-09-29T16:07:33.901Z,1.50
2022-09-29T16:10:09.357Z,1.90
2022-09-29T16:12:46.661Z,1.55
2022-09-29T16:15:29.522Z,1.70
2022-09-29T16:18:09.024Z,1.58
2022-09-29T16:22:04.369Z,1.27
2022-09-29T16:24:34.955Z,1.27
2022-09-29T16:27:02.338Z,1.20
2022-09-29T16:29:36.980Z,1.50
2022-09-29T16:32:32.543Z,1.45
2022-09-29T16:35:58.512Z,1.50
2022-09-29T17:13:52.447Z,1.45
2022-09-29T17:46:17.987Z,2.50
2022-09-29T17:56:34.772Z,2.10
2022-09-29T18:21:04.482Z,1.30
2022-09-29T18:26:46.321Z,1.40
2022-09-29T18:29:17.544Z,1.50
2022-09-29T18:43:25.357Z,1.60
2022-09-29T18:46:13.481Z,1.58
2022-09-29T18:48:41.710Z,1.58
2022-09-29T18:51:13.274Z,1.83
2022-09-29T18:53:44.435Z,1.60
2022-09-29T18:56:19.022Z,1.30
2022-09-29T19:04:34.237Z,1.45
2022-09-29T19:07:00.954Z,1.38
2022-09-29T19:09:28.755Z,2.45
2022-09-29T19:11:55.589Z,1.70
2022-09-29T19:14:27.945Z,1.75
2022-09-29T19:19:50.528Z,1.85
2022-09-29T19:22:23.840Z,1.27
2022-09-29T19:24:59.770Z,1.63
2022-09-29T19:27:30.215Z,1.25
2022-09-29T19:30:10.218Z,1.50
2022-09-29T19:32:46.096Z,1.50
2022-09-29T19:40:59.774Z,1.42
2022-09-29T19:46:45.202Z,1.17
2022-09-29T19:49:11.904Z,1.20
2022-09-29T19:51:52.349Z,1.20
2022-09-29T19:54:21.885Z,0.60
2022-09-29T19:56:54.382Z,0.80
2022-09-29T20:01:51.442Z,1.35
2022-09-29T20:04:29.788Z,1.42
2022-09-29T20:07:19.134Z,1.60
2022-09-29T20:09:51.484Z,1.67
2022-09-29T20:12:26.920Z,1.70
2022-09-29T20:14:53.791Z,1.40
2022-09-29T20:17:20.614Z,1.40
2022-09-29T20:19:47.781Z,2.30
2022-09-29T20:22:15.641Z,1.42
2022-09-29T20:24:42.312Z,1.48
2022-09-29T20:27:08.990Z,1.25
2022-09-29T20:32:20.251Z,1.50
2022-09-29T20:34:47.134Z,1.55
2022-09-29T20:37:14.204Z,1.38
2022-09-29T20:39:41.131Z,1.60
2022-09-29T20:42:08.486Z,1.33
2022-09-29T20:45:08.689Z,1.60
2022-09-29T20:47:38.652Z,1.70
2022-09-29T20:50:05.817Z,1.80
2022-09-29T20:52:32.497Z,1.35
2022-09-29T20:55:02.549Z,1.40
2022-09-29T20:57:29.178Z,1.40
2022-09-29T20:59:56.583Z,1.20
2022-09-29T21:05:12.326Z,1.30
2022-09-29T21:07:40.152Z,1.60
2022-09-29T21:10:07.595Z,1.35
2022-09-29T21:12:34.303Z,1.60
2022-09-29T21:15:02.141Z,2.10
2022-09-29T21:17:29.694Z,1.70
2022-09-29T21:19:56.466Z,1.90
2022-09-29T21:22:27.441Z,2.00
2022-09-29T21:24:55.475Z,1.97
2022-09-29T21:30:21.178Z,1.70
2022-09-29T21:32:49.279Z,1.65
2022-09-29T21:35:15.961Z,1.65
2022-09-29T21:37:42.761Z,1.83
2022-09-29T21:40:09.924Z,2.20
2022-09-29T21:42:36.650Z,2.10
2022-09-29T21:45:03.475Z,2.00
2022-09-29T21:47:48.866Z,2.08
2022-09-29T21:50:15.491Z,1.90
2022-09-29T21:52:43.543Z,1.50
2022-09-29T21:55:10.591Z,2.10
2022-09-29T21:57:38.558Z,1.83
2022-09-29T22:00:06.157Z,1.92
2022-09-29T22:02:33.229Z,2.08
2022-09-29T22:05:01.283Z,2.30
2022-09-29T22:07:28.145Z,2.13
2022-09-29T22:10:08.182Z,2.30
2022-09-29T22:15:41.837Z,2.70
2022-09-29T22:18:29.753Z,2.65
2022-09-29T22:21:06.419Z,2.80
2022-09-29T22:23:33.704Z,2.80
2022-09-29T22:26:00.987Z,2.08
2022-09-29T22:28:28.184Z,1.15
2022-09-29T22:30:55.346Z,1.13
2022-09-29T22:33:25.042Z,1.50
2022-09-29T22:35:57.771Z,1.70
2022-09-29T22:38:30.190Z,1.60
2022-09-29T22:43:26.510Z,1.90
2022-09-29T22:45:53.108Z,2.10
2022-09-29T22:48:19.935Z,2.83
2022-09-29T22:50:49.968Z,3.00
2022-09-29T22:53:16.724Z,2.90
2022-09-29T22:55:43.553Z,2.40
2022-09-29T22:58:26.349Z,1.90
2022-09-29T23:01:08.612Z,1.83
2022-09-29T23:03:53.383Z,2.33
2022-09-29T23:06:23.929Z,2.17
2022-09-29T23:08:55.115Z,2.60
2022-09-29T23:11:46.281Z,2.53
2022-09-29T23:14:36.876Z,2.40
2022-09-29T23:17:06.985Z,2.72
2022-09-29T23:19:41.555Z,2.45
2022-09-29T23:22:16.812Z,2.90
2022-09-29T23:24:46.559Z,2.80
2022-09-29T23:27:21.106Z,3.13
2022-09-29T23:29:47.794Z,2.80
2022-09-29T23:32:18.898Z,2.80
2022-09-29T23:35:06.490Z,3.15
2022-09-29T23:38:10.210Z,2.90
2022-09-29T23:40:37.136Z,2.88
2022-09-29T23:43:05.759Z,3.00
2022-09-29T23:46:01.674Z,2.60
2022-09-29T23:52:18.471Z,2.80
2022-09-29T23:57:26.463Z,2.63
2022-09-29T23:59:53.104Z,1.70
